KDWH/DWH METAR and TAF weather

Enter ICAO airport designator
Station Type Date Time Source
KDWH METAR 2022/12/04 04:53 UTC NOAA

KDWH 040453Z AUTO 33003KT 10SM OVC037 16/09 A3034 RMK AO2 SLP271 T01560089


Station Type Date Time Source
KDWH Decoded METAR 2022/12/04 04:53 UTC NOAA

HOUSTON HOOKS MEMORIAL, TX, United States (KDWH) 30-04N 95-33W 46M
Dec 03, 2022 - 11:53 PM EST / 2022.12.04 0453 UTC
Wind: from the NNW (330 degrees) at 3 MPH (3 KT):0
Visibility: 10 mile(s):0
Sky conditions: overcast
Temperature: 60.1 F (15.6 C)
Dew Point: 48.0 F (8.9 C)
Relative Humidity: 64%
Pressure (altimeter): 30.34 in. Hg (1027 hPa)
ob: KDWH 040453Z AUTO 33003KT 10SM OVC037 16/09 A3034 RMK AO2 SLP271 T01560089
cycle: 5

Station Type Date Time Source
KDWH TAF 2017/02/07 15:09 UTC NOAA

TAF
AMD KDWH 071507Z 0715/0812 23010KT P6SM BKN015
TEMPO 0715/0719 SCT015
FM071900 25010KT P6SM SCT025
FM080100 22005KT P6SM SCT250
TEMPO 0807/0809 3SM BR BKN013
FM080900 VRB03KT 2SM BR OVC008

Example: see airport list